Time;durP1;ratioP1;P1;durP2;ratioP2;P2;SDS_P1;SDS_P2;PMS_P1;PMS_P2;Temp;Humidity;BMP_temperature;BMP_pressure;BME280_temperature;BME280_humidity;BME280_pressure;Samples;Min_cycle;Max_cycle;Signal;HPM_P1;HPM_P2
2022/08/09 00:03:59;;;;;;;3.20;2.90;;;;;;;;;;10489013;28;20037;-59
2022/08/09 00:09:00;;;;;;;3.05;2.85;;;;;;;;;;10470501;28;20029;-58
2022/08/09 00:14:01;;;;;;;3.53;2.97;;;;;;;;;;10474302;28;20029;-58
2022/08/09 00:19:03;;;;;;;3.83;2.90;;;;;;;;;;10493973;28;20036;-58
2022/08/09 00:24:04;;;;;;;2.80;2.60;;;;;;;;;;10493565;28;20558;-58
2022/08/09 00:29:05;;;;;;;3.15;2.85;;;;;;;;;;10474205;28;20248;-58
2022/08/09 00:34:06;;;;;;;3.55;2.70;;;;;;;;;;10478457;28;20578;-58
2022/08/09 00:39:07;;;;;;;3.20;2.78;;;;;;;;;;10480442;28;20479;-58
2022/08/09 00:44:08;;;;;;;3.00;2.72;;;;;;;;;;10481667;28;20028;-58
2022/08/09 00:49:09;;;;;;;2.78;2.58;;;;;;;;;;10479023;28;20029;-58
2022/08/09 00:54:10;;;;;;;3.40;3.10;;;;;;;;;;10466811;28;20029;-58
2022/08/09 00:59:11;;;;;;;3.13;2.70;;;;;;;;;;10465365;28;20463;-58
2022/08/09 01:04:39;;;;;;;2.72;2.53;;;;;;;;;;10460648;28;20044;-59
2022/08/09 01:10:02;;;;;;;3.08;2.72;;;;;;;;;;10485208;28;20107;-58
2022/08/09 01:15:11;;;;;;;3.28;2.92;;;;;;;;;;10484896;28;20078;-58
2022/08/09 01:20:41;;;;;;;3.85;2.83;;;;;;;;;;10490568;28;20072;-58
2022/08/09 01:26:14;;;;;;;3.00;2.70;;;;;;;;;;10493906;28;20511;-58
2022/08/09 01:31:21;;;;;;;2.47;2.28;;;;;;;;;;10462679;28;20051;-58
2022/08/09 01:36:23;;;;;;;2.92;2.63;;;;;;;;;;10479107;28;20701;-58
2022/08/09 01:41:40;;;;;;;2.92;2.63;;;;;;;;;;10482992;28;20036;-58
2022/08/09 01:46:44;;;;;;;3.17;2.58;;;;;;;;;;10488152;28;20036;-58
2022/08/09 01:51:57;;;;;;;2.75;2.55;;;;;;;;;;10477965;28;20028;-58
2022/08/09 01:57:09;;;;;;;3.15;2.85;;;;;;;;;;10470178;28;20052;-58
2022/08/09 02:02:12;;;;;;;2.95;2.75;;;;;;;;;;10476860;28;20229;-58
2022/08/09 02:07:17;;;;;;;3.17;2.63;;;;;;;;;;10488140;28;20091;-58
2022/08/09 02:12:20;;;;;;;2.55;2.35;;;;;;;;;;10483488;28;20078;-58
2022/08/09 02:17:26;;;;;;;2.75;2.55;;;;;;;;;;10487397;28;20403;-59
2022/08/09 02:22:38;;;;;;;3.13;2.65;;;;;;;;;;10483475;28;20029;-58
2022/08/09 02:27:44;;;;;;;2.92;2.63;;;;;;;;;;10474471;28;20119;-58
2022/08/09 02:32:47;;;;;;;3.10;2.80;;;;;;;;;;10487639;28;20048;-58
2022/08/09 02:37:54;;;;;;;2.97;2.42;;;;;;;;;;10482211;28;20063;-58
2022/08/09 02:42:57;;;;;;;2.88;2.40;;;;;;;;;;10488836;28;20037;-58
2022/08/09 02:48:07;;;;;;;2.83;2.47;;;;;;;;;;10487034;28;20044;-58
2022/08/09 02:53:25;;;;;;;5.10;2.40;;;;;;;;;;10488483;28;20056;-58
2022/08/09 02:58:32;;;;;;;2.58;2.35;;;;;;;;;;10469278;28;20446;-58
2022/08/09 03:03:34;;;;;;;3.08;2.70;;;;;;;;;;10501531;23;20037;-61
2022/08/09 03:08:36;;;;;;;2.78;2.40;;;;;;;;;;10508737;28;20024;-54
2022/08/09 03:13:37;;;;;;;5.43;2.65;;;;;;;;;;10521914;28;20024;-52
2022/08/09 03:18:39;;;;;;;2.70;2.50;;;;;;;;;;10528908;28;20114;-54
2022/08/09 03:23:42;;;;;;;2.50;2.30;;;;;;;;;;10522747;28;20031;-54
2022/08/09 03:28:47;;;;;;;2.15;2.05;;;;;;;;;;10511019;28;20027;-55
2022/08/09 03:33:49;;;;;;;2.60;2.40;;;;;;;;;;10506896;28;20024;-53
2022/08/09 03:38:49;;;;;;;2.50;2.30;;;;;;;;;;10520374;28;20059;-54
2022/08/09 03:43:50;;;;;;;2.30;2.10;;;;;;;;;;10537862;28;20036;-54
2022/08/09 03:48:56;;;;;;;3.15;2.30;;;;;;;;;;10536259;28;20519;-54
2022/08/09 03:53:57;;;;;;;2.58;2.38;;;;;;;;;;10540761;28;20023;-54
2022/08/09 03:58:57;;;;;;;2.67;2.47;;;;;;;;;;10538117;28;20032;-55
2022/08/09 04:04:00;;;;;;;2.40;2.20;;;;;;;;;;10536022;28;20048;-55
2022/08/09 04:09:03;;;;;;;3.65;2.70;;;;;;;;;;10536112;28;20028;-54
2022/08/09 04:14:03;;;;;;;2.60;2.40;;;;;;;;;;10537718;28;20036;-52
2022/08/09 04:19:04;;;;;;;4.45;2.50;;;;;;;;;;10530719;28;20032;-52
2022/08/09 04:24:05;;;;;;;2.40;2.20;;;;;;;;;;10537025;28;20028;-54
2022/08/09 04:29:06;;;;;;;2.88;2.47;;;;;;;;;;10531396;28;20028;-54
2022/08/09 04:34:07;;;;;;;3.25;2.45;;;;;;;;;;10533960;28;20020;-54
2022/08/09 04:39:08;;;;;;;3.35;2.35;;;;;;;;;;10512999;28;20028;-55
2022/08/09 04:44:10;;;;;;;2.42;2.22;;;;;;;;;;10546617;28;20028;-54
2022/08/09 04:49:11;;;;;;;2.95;2.20;;;;;;;;;;10535253;28;20057;-54
2022/08/09 04:54:12;;;;;;;2.40;2.20;;;;;;;;;;10535577;28;20016;-57
2022/08/09 04:59:12;;;;;;;2.53;2.33;;;;;;;;;;10520997;28;20035;-53
2022/08/09 05:04:13;;;;;;;5.00;2.22;;;;;;;;;;10534816;28;20166;-53
2022/08/09 05:09:14;;;;;;;2.40;2.20;;;;;;;;;;10527824;28;20387;-54
2022/08/09 05:14:14;;;;;;;2.50;2.25;;;;;;;;;;10534212;28;20028;-53
2022/08/09 05:19:20;;;;;;;2.40;2.20;;;;;;;;;;10534758;28;20036;-53
2022/08/09 05:24:20;;;;;;;2.33;2.13;;;;;;;;;;10529114;28;20205;-55
2022/08/09 05:29:21;;;;;;;2.50;2.30;;;;;;;;;;10534347;28;20270;-51
2022/08/09 05:34:21;;;;;;;2.67;2.40;;;;;;;;;;10520000;28;20119;-52
2022/08/09 05:39:23;;;;;;;2.30;2.10;;;;;;;;;;10532965;28;20402;-53
2022/08/09 05:44:26;;;;;;;2.22;2.08;;;;;;;;;;10524433;28;20514;-55
2022/08/09 05:49:27;;;;;;;2.83;2.63;;;;;;;;;;10532395;28;20112;-52
2022/08/09 05:54:27;;;;;;;2.47;2.13;;;;;;;;;;10532666;28;20036;-52
2022/08/09 05:59:28;;;;;;;3.80;2.25;;;;;;;;;;10520955;28;20168;-54
2022/08/09 06:04:28;;;;;;;4.10;2.15;;;;;;;;;;10531736;28;20048;-56
2022/08/09 06:09:29;;;;;;;4.90;2.55;;;;;;;;;;10532203;28;20507;-56
2022/08/09 06:14:30;;;;;;;5.15;2.78;;;;;;;;;;10533221;28;20031;-55
2022/08/09 06:19:30;;;;;;;6.43;2.45;;;;;;;;;;10531862;28;20036;-56
2022/08/09 06:24:31;;;;;;;5.00;2.17;;;;;;;;;;10532525;28;20504;-55
2022/08/09 06:29:31;;;;;;;4.15;2.22;;;;;;;;;;10524373;28;20043;-55
2022/08/09 06:34:32;;;;;;;4.07;2.17;;;;;;;;;;10526073;28;20036;-58
2022/08/09 06:39:33;;;;;;;4.57;2.15;;;;;;;;;;10531879;28;20040;-55
2022/08/09 06:44:33;;;;;;;5.90;2.30;;;;;;;;;;10517934;28;20483;-57
2022/08/09 06:49:34;;;;;;;5.13;2.20;;;;;;;;;;10530869;28;20032;-56
2022/08/09 06:54:35;;;;;;;3.25;2.38;;;;;;;;;;10528110;28;20022;-56
2022/08/09 06:59:35;;;;;;;8.82;2.97;;;;;;;;;;10531715;28;20055;-57
2022/08/09 07:04:36;;;;;;;3.63;2.20;;;;;;;;;;10531760;28;20037;-58
2022/08/09 07:09:37;;;;;;;3.95;2.50;;;;;;;;;;10531328;28;20038;-58
2022/08/09 07:14:38;;;;;;;3.10;2.10;;;;;;;;;;10535319;28;20054;-56
2022/08/09 07:19:39;;;;;;;4.53;2.30;;;;;;;;;;10538375;28;20035;-56
2022/08/09 07:24:39;;;;;;;4.05;2.50;;;;;;;;;;10538446;28;20077;-56
2022/08/09 07:29:40;;;;;;;5.55;2.58;;;;;;;;;;10539202;28;20028;-60
2022/08/09 07:34:41;;;;;;;2.38;2.17;;;;;;;;;;10529054;28;20369;-56
2022/08/09 07:39:41;;;;;;;2.78;2.40;;;;;;;;;;10538817;28;20031;-57
2022/08/09 07:44:42;;;;;;;7.57;2.50;;;;;;;;;;10528130;28;20031;-57
2022/08/09 07:49:43;;;;;;;5.88;2.63;;;;;;;;;;10538484;28;20028;-55
2022/08/09 07:54:44;;;;;;;3.70;2.80;;;;;;;;;;10538182;28;20051;-54
2022/08/09 07:59:44;;;;;;;5.72;2.33;;;;;;;;;;10536059;28;20044;-57
2022/08/09 08:04:45;;;;;;;3.58;2.55;;;;;;;;;;10537618;28;20052;-55
2022/08/09 08:09:45;;;;;;;2.70;2.50;;;;;;;;;;10537546;28;20024;-56
2022/08/09 08:14:46;;;;;;;2.70;2.28;;;;;;;;;;10536612;28;20491;-56
2022/08/09 08:19:46;;;;;;;5.57;2.40;;;;;;;;;;10537173;28;20406;-55
2022/08/09 08:24:50;;;;;;;4.75;2.50;;;;;;;;;;10535462;28;20482;-58
2022/08/09 08:29:52;;;;;;;3.67;2.25;;;;;;;;;;10535835;28;20036;-54
2022/08/09 08:34:53;;;;;;;7.07;2.67;;;;;;;;;;10530841;28;20077;-56
2022/08/09 08:39:54;;;;;;;5.53;2.22;;;;;;;;;;10535933;28;20032;-55
2022/08/09 08:45:00;;;;;;;3.97;2.30;;;;;;;;;;10526838;28;20031;-60
2022/08/09 08:50:01;;;;;;;3.15;2.58;;;;;;;;;;10535949;28;20624;-56
2022/08/09 08:55:02;;;;;;;2.58;2.38;;;;;;;;;;10534577;28;20427;-56
2022/08/09 09:00:07;;;;;;;3.58;2.08;;;;;;;;;;10535729;28;20032;-57
2022/08/09 09:05:12;;;;;;;2.75;2.53;;;;;;;;;;10534225;28;20132;-55
2022/08/09 09:10:12;;;;;;;6.55;2.60;;;;;;;;;;10535297;28;20027;-56
2022/08/09 09:15:14;;;;;;;5.90;2.60;;;;;;;;;;10534076;28;20020;-55
2022/08/09 09:20:15;;;;;;;2.90;2.50;;;;;;;;;;10534711;28;20110;-55
2022/08/09 09:25:42;;;;;;;3.33;2.17;;;;;;;;;;10534290;28;20111;-55
2022/08/09 09:30:55;;;;;;;2.58;2.38;;;;;;;;;;10533391;28;20031;-54
2022/08/09 09:35:59;;;;;;;2.83;2.40;;;;;;;;;;10526047;28;20036;-57
2022/08/09 09:40:59;;;;;;;2.80;2.58;;;;;;;;;;10533542;28;20056;-55
2022/08/09 09:46:03;;;;;;;5.63;2.65;;;;;;;;;;10533672;28;20476;-57
2022/08/09 09:51:03;;;;;;;2.45;2.25;;;;;;;;;;10532925;28;20414;-55
2022/08/09 09:56:04;;;;;;;7.70;3.17;;;;;;;;;;10524405;28;20028;-57
2022/08/09 10:01:18;;;;;;;4.40;2.63;;;;;;;;;;10533206;28;20024;-55
2022/08/09 10:06:19;;;;;;;2.83;2.25;;;;;;;;;;10532784;28;20394;-53
2022/08/09 10:11:22;;;;;;;7.47;2.83;;;;;;;;;;10532924;28;20433;-56
2022/08/09 10:16:41;;;;;;;4.43;2.50;;;;;;;;;;10531090;28;20031;-57
2022/08/09 10:21:47;;;;;;;2.78;2.40;;;;;;;;;;10518469;28;20104;-56
2022/08/09 10:26:48;;;;;;;3.75;2.33;;;;;;;;;;10531798;28;20483;-56
2022/08/09 10:31:51;;;;;;;5.15;2.60;;;;;;;;;;10519512;28;20455;-61
2022/08/09 10:36:55;;;;;;;3.95;2.40;;;;;;;;;;10529099;28;20024;-58
2022/08/09 10:41:56;;;;;;;3.10;2.42;;;;;;;;;;10519979;28;20027;-54
2022/08/09 10:47:33;;;;;;;4.90;2.40;;;;;;;;;;10525207;28;20020;-57
2022/08/09 10:53:19;;;;;;;4.13;2.83;;;;;;;;;;10532847;28;20356;-55
2022/08/09 10:58:33;;;;;;;6.80;2.60;;;;;;;;;;10538156;28;20437;-54
2022/08/09 11:03:34;;;;;;;8.27;2.53;;;;;;;;;;10533595;28;20090;-53
2022/08/09 11:08:43;;;;;;;3.28;2.28;;;;;;;;;;10539805;28;20075;-54
2022/08/09 11:13:44;;;;;;;4.38;2.35;;;;;;;;;;10540327;28;20020;-57
2022/08/09 11:18:45;;;;;;;3.75;2.55;;;;;;;;;;10525917;28;20068;-53
2022/08/09 11:23:58;;;;;;;3.53;2.47;;;;;;;;;;10539871;28;20039;-53
2022/08/09 11:28:59;;;;;;;2.33;1.83;;;;;;;;;;10538207;28;20028;-53
2022/08/09 11:34:05;;;;;;;4.43;2.40;;;;;;;;;;10536917;28;20031;-56
2022/08/09 11:39:05;;;;;;;2.35;2.15;;;;;;;;;;10538459;28;20039;-59
2022/08/09 11:44:07;;;;;;;2.05;1.85;;;;;;;;;;10535018;28;20024;-53
2022/08/09 11:49:07;;;;;;;2.25;2.03;;;;;;;;;;10531339;28;20116;-54
2022/08/09 11:54:17;;;;;;;4.07;1.98;;;;;;;;;;10534708;28;20081;-54
2022/08/09 11:59:28;;;;;;;2.53;2.08;;;;;;;;;;10536119;28;20056;-55
2022/08/09 12:04:29;;;;;;;2.35;1.90;;;;;;;;;;10536399;28;20032;-55
2022/08/09 12:09:33;;;;;;;2.70;2.10;;;;;;;;;;10532594;28;20031;-55
2022/08/09 12:14:36;;;;;;;1.90;1.80;;;;;;;;;;10535746;28;20337;-55
2022/08/09 12:19:37;;;;;;;2.20;2.00;;;;;;;;;;10537223;28;20052;-54
2022/08/09 12:24:38;;;;;;;3.00;2.17;;;;;;;;;;10531916;28;20115;-54
2022/08/09 12:29:39;;;;;;;3.22;2.03;;;;;;;;;;10533698;28;20387;-55
2022/08/09 12:34:42;;;;;;;2.78;2.05;;;;;;;;;;10528517;28;20024;-53
2022/08/09 12:39:56;;;;;;;5.70;2.10;;;;;;;;;;10523470;28;20282;-53
2022/08/09 12:44:57;;;;;;;4.30;2.15;;;;;;;;;;10535407;28;20043;-55
2022/08/09 12:50:16;;;;;;;3.65;2.00;;;;;;;;;;10533297;28;20016;-55
2022/08/09 12:55:31;;;;;;;2.78;2.20;;;;;;;;;;10533231;28;20024;-54
2022/08/09 13:00:42;;;;;;;6.47;2.63;;;;;;;;;;10535629;28;20483;-55
2022/08/09 13:05:47;;;;;;;4.70;2.25;;;;;;;;;;10535348;28;20036;-54
2022/08/09 13:10:53;;;;;;;2.22;1.95;;;;;;;;;;10520793;28;20534;-58
2022/08/09 13:16:07;;;;;;;2.75;2.30;;;;;;;;;;10535205;28;20059;-56
2022/08/09 13:21:26;;;;;;;4.20;2.17;;;;;;;;;;10535198;28;20035;-54
2022/08/09 13:26:41;;;;;;;2.33;1.98;;;;;;;;;;10534954;28;20024;-55
2022/08/09 13:32:02;;;;;;;5.50;2.40;;;;;;;;;;10534598;28;20016;-55
2022/08/09 13:37:04;;;;;;;2.55;2.00;;;;;;;;;;10514528;28;20495;-58
2022/08/09 13:42:10;;;;;;;2.55;2.20;;;;;;;;;;10534251;28;20082;-57
2022/08/09 13:47:16;;;;;;;3.78;2.05;;;;;;;;;;10514570;28;20067;-55
2022/08/09 13:52:16;;;;;;;2.30;2.10;;;;;;;;;;10527240;28;20020;-55
2022/08/09 13:57:17;;;;;;;2.25;1.90;;;;;;;;;;10533148;28;20055;-55
2022/08/09 14:02:18;;;;;;;2.75;2.15;;;;;;;;;;10533731;28;20035;-54
2022/08/09 14:07:20;;;;;;;4.78;2.20;;;;;;;;;;10533091;28;20055;-57
2022/08/09 14:12:20;;;;;;;3.30;2.00;;;;;;;;;;10529831;28;20388;-55
2022/08/09 14:17:21;;;;;;;2.30;2.08;;;;;;;;;;10533445;28;20039;-53
2022/08/09 14:22:21;;;;;;;2.42;2.15;;;;;;;;;;10532610;28;20089;-54
2022/08/09 14:27:22;;;;;;;2.40;2.20;;;;;;;;;;10532368;28;20440;-54
2022/08/09 14:32:24;;;;;;;2.72;2.28;;;;;;;;;;10531015;28;20526;-53
2022/08/09 14:37:25;;;;;;;3.15;2.10;;;;;;;;;;10494529;28;20035;-55
2022/08/09 14:42:26;;;;;;;2.88;2.10;;;;;;;;;;10528590;28;20383;-55
2022/08/09 14:47:27;;;;;;;2.80;2.20;;;;;;;;;;10531503;28;20044;-56
2022/08/09 14:52:27;;;;;;;2.67;2.08;;;;;;;;;;10531005;28;20024;-53
2022/08/09 14:57:28;;;;;;;2.75;2.15;;;;;;;;;;10531677;28;20046;-54
2022/08/09 15:02:28;;;;;;;2.22;1.92;;;;;;;;;;10531295;28;20110;-54
2022/08/09 15:07:29;;;;;;;3.03;1.73;;;;;;;;;;10523317;28;20078;-54
2022/08/09 15:12:30;;;;;;;5.03;1.90;;;;;;;;;;10528845;28;20032;-54
2022/08/09 15:17:30;;;;;;;3.25;1.80;;;;;;;;;;10531371;28;20020;-55
2022/08/09 15:22:31;;;;;;;2.10;1.90;;;;;;;;;;10532047;28;20028;-55
2022/08/09 15:27:31;;;;;;;3.72;2.13;;;;;;;;;;10517897;28;20028;-54
2022/08/09 15:32:32;;;;;;;5.97;2.13;;;;;;;;;;10530923;28;20024;-55
2022/08/09 15:37:33;;;;;;;2.92;2.10;;;;;;;;;;10532739;28;20502;-53
2022/08/09 15:42:35;;;;;;;2.38;1.90;;;;;;;;;;10539527;28;20367;-54
2022/08/09 15:47:38;;;;;;;2.20;1.90;;;;;;;;;;10538720;28;20073;-54
2022/08/09 15:52:40;;;;;;;3.08;2.05;;;;;;;;;;10538660;28;20020;-54
2022/08/09 15:57:41;;;;;;;2.35;1.83;;;;;;;;;;10537748;28;20042;-52
2022/08/09 16:02:44;;;;;;;2.70;2.13;;;;;;;;;;10537989;28;20031;-54
2022/08/09 16:07:46;;;;;;;3.10;2.08;;;;;;;;;;10538307;28;20035;-54
2022/08/09 16:12:46;;;;;;;3.53;2.13;;;;;;;;;;10534347;28;20494;-55
2022/08/09 16:17:47;;;;;;;2.95;1.92;;;;;;;;;;10517407;28;20067;-54
2022/08/09 16:22:48;;;;;;;2.33;2.00;;;;;;;;;;10537429;28;20440;-54
2022/08/09 16:27:48;;;;;;;5.38;2.17;;;;;;;;;;10536943;28;20020;-53
2022/08/09 16:33:07;;;;;;;2.80;1.75;;;;;;;;;;10537040;28;20077;-53
2022/08/09 16:38:08;;;;;;;3.83;2.10;;;;;;;;;;10532805;28;20032;-55
2022/08/09 16:43:09;;;;;;;4.90;2.13;;;;;;;;;;10534275;28;20023;-59
2022/08/09 16:48:10;;;;;;;1.83;1.73;;;;;;;;;;10527936;28;20107;-54
2022/08/09 16:53:11;;;;;;;3.80;2.00;;;;;;;;;;10527628;28;20024;-59
2022/08/09 16:58:14;;;;;;;2.45;1.83;;;;;;;;;;10535520;28;20039;-54
2022/08/09 17:03:14;;;;;;;2.35;2.00;;;;;;;;;;10532947;28;20432;-55
2022/08/09 17:08:15;;;;;;;2.05;1.85;;;;;;;;;;10534779;28;20036;-53
2022/08/09 17:13:16;;;;;;;2.20;1.73;;;;;;;;;;10532661;28;20028;-54
2022/08/09 17:18:16;;;;;;;2.25;2.05;;;;;;;;;;10535286;28;20024;-53
2022/08/09 17:23:17;;;;;;;4.25;2.00;;;;;;;;;;10533744;28;20032;-55
2022/08/09 17:28:18;;;;;;;2.60;2.40;;;;;;;;;;10525750;28;20024;-53
2022/08/09 17:33:19;;;;;;;3.25;2.38;;;;;;;;;;10533624;28;20024;-55
2022/08/09 17:38:19;;;;;;;1.98;1.75;;;;;;;;;;10528763;28;20430;-53
2022/08/09 17:43:20;;;;;;;4.75;2.28;;;;;;;;;;10533665;28;20013;-55
2022/08/09 17:48:20;;;;;;;2.53;1.73;;;;;;;;;;10533184;28;20495;-55
2022/08/09 17:53:21;;;;;;;2.50;2.00;;;;;;;;;;10533479;28;20028;-59
2022/08/09 17:58:21;;;;;;;2.28;2.03;;;;;;;;;;10533054;28;20047;-54
2022/08/09 18:03:23;;;;;;;3.40;2.13;;;;;;;;;;10533221;28;20032;-55
2022/08/09 18:08:24;;;;;;;2.38;2.03;;;;;;;;;;10514146;28;20056;-54
2022/08/09 18:13:24;;;;;;;2.80;2.03;;;;;;;;;;10530479;28;20036;-54
2022/08/09 18:18:25;;;;;;;2.47;1.77;;;;;;;;;;10530793;28;20032;-54
2022/08/09 18:23:25;;;;;;;5.97;2.22;;;;;;;;;;10522055;28;20040;-54
2022/08/09 18:28:28;;;;;;;5.07;2.00;;;;;;;;;;10529746;28;20035;-54
2022/08/09 18:33:29;;;;;;;2.78;1.65;;;;;;;;;;10530746;28;20032;-55
2022/08/09 18:38:29;;;;;;;8.45;2.25;;;;;;;;;;10525419;28;20525;-55
2022/08/09 18:43:30;;;;;;;7.03;2.40;;;;;;;;;;10518325;28;20028;-54
2022/08/09 18:48:31;;;;;;;7.30;2.40;;;;;;;;;;10521562;28;20024;-56
2022/08/09 18:53:33;;;;;;;5.50;2.47;;;;;;;;;;10531834;28;20099;-55
2022/08/09 18:58:33;;;;;;;3.42;2.30;;;;;;;;;;10520660;28;20047;-54
2022/08/09 19:03:34;;;;;;;3.03;2.30;;;;;;;;;;10531796;28;20031;-54
2022/08/09 19:08:34;;;;;;;5.50;2.20;;;;;;;;;;10531338;28;20033;-54
2022/08/09 19:13:35;;;;;;;4.10;2.25;;;;;;;;;;10534524;28;20148;-55
2022/08/09 19:18:36;;;;;;;3.40;2.58;;;;;;;;;;10542703;28;20055;-55
2022/08/09 19:23:38;;;;;;;3.50;2.00;;;;;;;;;;10539121;28;20020;-54
2022/08/09 19:28:39;;;;;;;4.43;2.03;;;;;;;;;;10531640;28;20028;-56
2022/08/09 19:33:40;;;;;;;4.38;2.20;;;;;;;;;;10533869;28;20032;-56
2022/08/09 19:38:40;;;;;;;3.45;2.55;;;;;;;;;;10532764;28;20044;-55
2022/08/09 19:43:41;;;;;;;1.88;1.73;;;;;;;;;;10536490;28;20383;-55
2022/08/09 19:48:41;;;;;;;2.13;1.90;;;;;;;;;;10536433;28;20035;-56
2022/08/09 19:53:42;;;;;;;4.55;2.30;;;;;;;;;;10535845;28;20499;-55
2022/08/09 19:58:43;;;;;;;5.88;2.50;;;;;;;;;;10535078;28;20399;-55
2022/08/09 20:03:43;;;;;;;6.90;2.30;;;;;;;;;;10536736;28;20039;-55
2022/08/09 20:08:44;;;;;;;6.90;2.45;;;;;;;;;;10534326;28;20029;-60
2022/08/09 20:13:44;;;;;;;8.13;2.60;;;;;;;;;;10536094;28;20024;-55
2022/08/09 20:18:45;;;;;;;6.72;2.25;;;;;;;;;;10533765;28;20531;-55
2022/08/09 20:23:46;;;;;;;6.43;2.95;;;;;;;;;;10533460;28;20025;-55
2022/08/09 20:28:47;;;;;;;4.82;2.90;;;;;;;;;;10533082;28;20035;-54
2022/08/09 20:33:47;;;;;;;7.32;3.47;;;;;;;;;;10530060;28;20031;-56
2022/08/09 20:38:48;;;;;;;8.88;3.40;;;;;;;;;;10521833;28;20024;-54
2022/08/09 20:43:48;;;;;;;11.38;3.35;;;;;;;;;;10533193;28;20065;-54
2022/08/09 20:48:49;;;;;;;14.15;3.72;;;;;;;;;;10523639;28;20024;-55
2022/08/09 20:53:50;;;;;;;8.27;3.17;;;;;;;;;;10530317;28;20028;-56
2022/08/09 20:58:53;;;;;;;9.57;3.22;;;;;;;;;;10525921;28;20039;-55
2022/08/09 21:03:53;;;;;;;5.25;2.95;;;;;;;;;;10535150;28;20459;-56
2022/08/09 21:08:54;;;;;;;11.18;3.08;;;;;;;;;;10531223;28;20055;-54
2022/08/09 21:13:55;;;;;;;4.03;3.00;;;;;;;;;;10524490;28;20239;-54
2022/08/09 21:18:57;;;;;;;7.15;3.25;;;;;;;;;;10535407;28;20035;-54
2022/08/09 21:23:58;;;;;;;11.30;3.22;;;;;;;;;;10520569;28;20055;-55
2022/08/09 21:28:58;;;;;;;7.63;3.08;;;;;;;;;;10531613;28;20107;-52
2022/08/09 21:33:59;;;;;;;5.10;2.72;;;;;;;;;;10533723;28;20024;-55
2022/08/09 21:39:00;;;;;;;10.43;2.85;;;;;;;;;;10534312;28;20356;-55
2022/08/09 21:44:00;;;;;;;5.20;2.60;;;;;;;;;;10520303;28;20223;-55
2022/08/09 21:49:01;;;;;;;6.03;2.42;;;;;;;;;;10525685;28;20020;-55
2022/08/09 21:54:02;;;;;;;6.30;2.67;;;;;;;;;;10533150;28;20383;-55
2022/08/09 21:59:03;;;;;;;4.88;2.50;;;;;;;;;;10533744;28;20027;-56
2022/08/09 22:04:03;;;;;;;3.75;2.40;;;;;;;;;;10533192;28;20051;-54
2022/08/09 22:09:05;;;;;;;7.70;2.33;;;;;;;;;;10520792;28;20430;-50
2022/08/09 22:14:06;;;;;;;6.50;2.33;;;;;;;;;;10523888;28;20451;-55
2022/08/09 22:19:06;;;;;;;4.70;2.50;;;;;;;;;;10505538;28;20033;-57
2022/08/09 22:24:07;;;;;;;7.18;2.50;;;;;;;;;;10518264;28;20064;-56
2022/08/09 22:29:07;;;;;;;4.82;2.30;;;;;;;;;;10531919;28;20429;-55
2022/08/09 22:34:11;;;;;;;6.60;2.78;;;;;;;;;;10505685;28;20067;-57
2022/08/09 22:39:15;;;;;;;3.58;2.20;;;;;;;;;;10516031;28;20051;-55
2022/08/09 22:44:16;;;;;;;3.38;2.10;;;;;;;;;;10503731;28;20390;-56
2022/08/09 22:49:16;;;;;;;4.07;2.17;;;;;;;;;;10512500;28;20032;-56
2022/08/09 22:54:17;;;;;;;3.72;2.53;;;;;;;;;;10528389;28;20051;-56
2022/08/09 22:59:18;;;;;;;2.95;2.00;;;;;;;;;;10519546;28;20040;-55
2022/08/09 23:04:19;;;;;;;2.20;2.03;;;;;;;;;;10530576;28;20036;-57
2022/08/09 23:09:19;;;;;;;3.58;2.03;;;;;;;;;;10510785;28;20476;-56
2022/08/09 23:14:20;;;;;;;3.45;2.10;;;;;;;;;;10524073;28;20047;-54
2022/08/09 23:19:20;;;;;;;1.98;1.80;;;;;;;;;;10518048;28;20039;-56
2022/08/09 23:24:21;;;;;;;1.98;1.75;;;;;;;;;;10519727;28;20073;-55
2022/08/09 23:29:21;;;;;;;4.00;2.13;;;;;;;;;;10530595;28;20379;-56
2022/08/09 23:34:22;;;;;;;3.13;1.80;;;;;;;;;;10512281;28;20032;-56
2022/08/09 23:39:23;;;;;;;2.40;1.92;;;;;;;;;;10530148;28;20032;-56
2022/08/09 23:44:23;;;;;;;1.92;1.50;;;;;;;;;;10528008;28;20539;-56
2022/08/09 23:49:25;;;;;;;4.13;2.00;;;;;;;;;;10530818;28;20039;-56
2022/08/09 23:54:25;;;;;;;2.05;1.85;;;;;;;;;;10531041;28;20048;-55
